createdAt,value
2023-04-02T00:01:46.846Z,7.47
2023-04-02T00:05:58.515Z,7.33
2023-04-02T00:10:57.094Z,7.43
2023-04-02T00:15:13.049Z,7.35
2023-04-02T00:19:30.817Z,7.37
2023-04-02T00:23:44.218Z,7.41
2023-04-02T00:27:56.695Z,7.43
2023-04-02T00:32:20.126Z,7.38
2023-04-02T00:36:36.551Z,7.41
2023-04-02T00:40:49.781Z,7.39
2023-04-02T00:45:02.282Z,7.37
2023-04-02T00:49:34.900Z,7.42
2023-04-02T00:53:48.762Z,7.33
2023-04-02T00:58:01.574Z,7.25
2023-04-02T01:02:17.473Z,7.24
2023-04-02T01:06:34.249Z,7.26
2023-04-02T01:11:11.796Z,7.14
2023-04-02T01:15:53.008Z,7.21
2023-04-02T01:20:42.185Z,7.23
2023-04-02T01:24:58.131Z,7.15
2023-04-02T01:29:14.166Z,7.05
2023-04-02T01:33:30.981Z,7.02
2023-04-02T01:37:58.623Z,7.03
2023-04-02T01:42:33.326Z,6.96
2023-04-02T01:46:48.803Z,6.95
2023-04-02T01:51:05.382Z,6.98
2023-04-02T01:55:33.794Z,6.94
2023-04-02T01:59:46.158Z,6.92
2023-04-02T02:03:58.150Z,6.94
2023-04-02T02:08:27.617Z,6.92
2023-04-02T02:12:39.508Z,6.94
2023-04-02T02:16:53.934Z,6.89
2023-04-02T02:21:09.538Z,6.92
2023-04-02T02:25:27.963Z,6.78
2023-04-02T02:29:42.818Z,6.77
2023-04-02T02:34:00.876Z,6.72
2023-04-02T02:38:35.834Z,6.66
2023-04-02T02:43:01.459Z,6.71
2023-04-02T02:47:34.998Z,6.63
2023-04-02T02:52:15.474Z,6.57
2023-04-02T02:56:53.626Z,6.51
2023-04-02T03:01:05.414Z,6.44
2023-04-02T03:05:22.200Z,6.33
2023-04-02T03:09:53.762Z,6.40
2023-04-02T03:14:33.903Z,6.35
2023-04-02T03:18:54.867Z,6.26
2023-04-02T03:23:30.735Z,6.27
2023-04-02T03:27:46.689Z,6.27
2023-04-02T03:32:05.636Z,6.22
2023-04-02T03:36:50.045Z,6.23
2023-04-02T03:41:10.317Z,6.17
2023-04-02T03:45:27.009Z,6.10
2023-04-02T03:50:13.469Z,6.18
2023-04-02T03:54:26.116Z,6.11
2023-04-02T03:58:47.401Z,6.03
2023-04-02T04:03:31.137Z,6.11
2023-04-02T04:07:44.433Z,6.04
2023-04-02T04:12:22.194Z,6.07
2023-04-02T04:16:43.010Z,6.04
2023-04-02T04:21:05.981Z,5.94
2023-04-02T04:25:33.997Z,5.93
2023-04-02T04:30:10.394Z,5.94
2023-04-02T04:34:36.872Z,5.82
2023-04-02T04:38:55.648Z,5.81
2023-04-02T04:43:17.824Z,5.82
2023-04-02T04:47:36.890Z,5.67
2023-04-02T04:51:54.670Z,5.60
2023-04-02T04:56:18.663Z,5.63
2023-04-02T05:00:49.659Z,5.62
2023-04-02T05:05:04.125Z,5.60
2023-04-02T05:09:36.168Z,5.58
2023-04-02T05:14:00.644Z,5.54
2023-04-02T05:18:25.844Z,5.52
2023-04-02T05:22:50.288Z,5.43
2023-04-02T05:27:13.002Z,5.32
2023-04-02T05:31:31.207Z,5.28
2023-04-02T05:35:49.569Z,5.21
2023-04-02T05:40:14.663Z,5.12
2023-04-02T05:44:30.810Z,5.03
2023-04-02T05:48:45.074Z,5.12
2023-04-02T05:53:17.775Z,5.09
2023-04-02T05:57:44.475Z,5.00
2023-04-02T06:02:22.858Z,5.01
2023-04-02T06:06:43.622Z,4.99
2023-04-02T06:11:06.122Z,4.93
2023-04-02T06:15:21.578Z,4.99
2023-04-02T06:19:38.483Z,5.09
2023-04-02T06:24:01.857Z,5.03
2023-04-02T06:28:20.344Z,5.02
2023-04-02T06:32:37.228Z,5.00
2023-04-02T06:36:54.765Z,4.98
2023-04-02T06:41:17.470Z,4.79
2023-04-02T06:45:51.989Z,4.72
2023-04-02T06:50:18.992Z,4.70
2023-04-02T06:54:31.411Z,4.75
2023-04-02T06:58:48.758Z,4.65
2023-04-02T07:03:04.926Z,4.66
2023-04-02T07:07:16.786Z,4.67
2023-04-02T07:11:31.094Z,4.69
2023-04-02T07:15:48.860Z,4.78
2023-04-02T07:20:00.876Z,4.85
2023-04-02T07:24:13.128Z,4.86
2023-04-02T07:28:24.987Z,4.98
2023-04-02T07:32:38.307Z,5.02
2023-04-02T07:36:49.964Z,5.07
2023-04-02T07:41:06.570Z,5.10
2023-04-02T07:45:18.294Z,5.28
2023-04-02T07:49:29.961Z,5.46
2023-04-02T07:53:42.741Z,5.50
2023-04-02T07:57:56.844Z,5.53
2023-04-02T08:02:19.387Z,5.71
2023-04-02T08:06:31.463Z,5.76
2023-04-02T08:10:43.298Z,5.75
2023-04-02T08:14:54.970Z,5.60
2023-04-02T08:19:06.691Z,5.70
2023-04-02T08:23:18.429Z,5.73
2023-04-02T08:27:30.168Z,5.69
2023-04-02T08:31:41.877Z,5.59
2023-04-02T08:35:53.724Z,5.46
2023-04-02T08:40:07.452Z,5.68
2023-04-02T08:44:36.768Z,5.90
2023-04-02T08:48:55.488Z,5.96
2023-04-02T08:53:16.745Z,6.04
2023-04-02T08:57:47.303Z,6.15
2023-04-02T09:02:03.893Z,6.33
2023-04-02T09:06:19.409Z,6.47
2023-04-02T09:10:42.480Z,6.54
2023-04-02T09:15:18.572Z,6.54
2023-04-02T09:19:37.679Z,6.48
2023-04-02T09:23:50.137Z,6.76
2023-04-02T09:28:04.261Z,6.90
2023-04-02T09:33:07.662Z,6.90
2023-04-02T09:37:22.998Z,7.10
2023-04-02T09:41:37.031Z,7.09
2023-04-02T09:46:05.080Z,6.96
2023-04-02T09:50:23.412Z,7.08
2023-04-02T09:54:42.033Z,7.22
2023-04-02T09:59:17.307Z,7.23
2023-04-02T10:03:43.157Z,7.03
2023-04-02T10:08:07.210Z,7.01
2023-04-02T10:12:18.939Z,7.09
2023-04-02T10:16:36.216Z,7.18
2023-04-02T10:20:51.404Z,7.59
2023-04-02T10:25:13.616Z,8.91
2023-04-02T10:29:46.574Z,10.36
2023-04-02T10:34:10.059Z,10.80
2023-04-02T10:38:42.655Z,10.54
2023-04-02T10:43:07.216Z,10.98
2023-04-02T10:47:18.892Z,11.46
2023-04-02T10:51:38.894Z,11.94
2023-04-02T10:55:58.092Z,12.54
2023-04-02T11:00:19.010Z,12.87
2023-04-02T11:04:46.329Z,13.26
2023-04-02T11:09:05.318Z,13.50
2023-04-02T11:13:22.827Z,13.49
2023-04-02T11:17:34.735Z,13.62
2023-04-02T11:21:58.788Z,13.71
2023-04-02T11:26:34.817Z,14.35
2023-04-02T11:30:48.804Z,14.35
2023-04-02T11:35:32.140Z,14.70
2023-04-02T11:39:59.666Z,14.82
2023-04-02T11:44:23.099Z,14.86
2023-04-02T11:48:36.505Z,14.81
2023-04-02T11:52:48.525Z,14.80
2023-04-02T11:57:24.554Z,14.34
2023-04-02T12:02:04.030Z,14.42
2023-04-02T12:06:42.401Z,14.57
2023-04-02T12:11:02.398Z,14.45
2023-04-02T12:15:26.108Z,14.39
2023-04-02T12:19:37.831Z,14.40
2023-04-02T12:23:53.640Z,14.31
2023-04-02T12:28:09.475Z,14.37
2023-04-02T12:32:28.514Z,14.51
2023-04-02T12:36:55.159Z,14.18
2023-04-02T12:41:30.379Z,14.09
2023-04-02T12:45:42.767Z,13.46
2023-04-02T12:49:56.830Z,13.02
2023-04-02T12:54:15.163Z,12.48
2023-04-02T12:58:45.611Z,12.13
2023-04-02T13:03:04.542Z,11.82
2023-04-02T13:07:19.069Z,11.72
2023-04-02T13:11:39.485Z,11.60
2023-04-02T13:16:05.401Z,11.32
2023-04-02T13:20:38.582Z,11.33
2023-04-02T13:24:50.423Z,11.25
2023-04-02T13:29:29.360Z,11.18
2023-04-02T13:33:40.945Z,11.25
2023-04-02T13:37:52.610Z,11.11
2023-04-02T13:42:06.482Z,11.12
2023-04-02T13:46:43.371Z,11.33
2023-04-02T13:50:55.021Z,11.20
2023-04-02T13:55:06.854Z,11.22
2023-04-02T13:59:18.477Z,11.12
2023-04-02T14:03:30.341Z,10.87
2023-04-02T14:07:48.117Z,10.83
2023-04-02T14:12:03.474Z,10.74
2023-04-02T14:16:31.944Z,10.87
2023-04-02T14:21:21.332Z,10.85
2023-04-02T14:25:38.953Z,10.96
2023-04-02T14:30:04.791Z,11.05
2023-04-02T14:34:48.770Z,11.02
2023-04-02T14:39:06.155Z,10.82
2023-04-02T14:43:33.202Z,10.84
2023-04-02T14:47:53.307Z,10.73
2023-04-02T14:52:10.780Z,10.72
2023-04-02T14:56:25.127Z,10.71
2023-04-02T15:00:51.576Z,10.62
2023-04-02T15:05:17.699Z,10.70
2023-04-02T15:09:38.595Z,10.56
2023-04-02T15:14:05.210Z,10.45
2023-04-02T15:18:18.082Z,10.45
2023-04-02T15:22:38.583Z,10.54
2023-04-02T15:27:12.040Z,10.62
2023-04-02T15:31:29.908Z,10.42
2023-04-02T15:35:54.935Z,10.37
2023-04-02T15:40:20.636Z,10.34
2023-04-02T15:44:33.935Z,10.40
2023-04-02T15:48:57.594Z,10.19
2023-04-02T15:53:33.066Z,10.23
2023-04-02T15:58:10.933Z,10.27
2023-04-02T16:02:31.602Z,10.21
2023-04-02T16:07:09.154Z,10.18
2023-04-02T16:11:26.036Z,10.18
2023-04-02T16:15:45.126Z,10.06
2023-04-02T16:20:07.841Z,10.08
2023-04-02T16:24:19.771Z,9.95
2023-04-02T16:29:01.710Z,9.94
2023-04-02T16:33:25.489Z,9.83
2023-04-02T16:37:43.992Z,9.90
2023-04-02T16:42:04.718Z,9.83
2023-04-02T16:46:42.804Z,9.92
2023-04-02T16:51:04.241Z,9.87
2023-04-02T16:55:19.699Z,9.84
2023-04-02T16:59:44.182Z,9.88
2023-04-02T17:04:24.908Z,9.84
2023-04-02T17:08:44.052Z,9.83
2023-04-02T17:13:14.261Z,9.83
2023-04-02T17:17:25.917Z,9.67
2023-04-02T17:21:40.164Z,9.82
2023-04-02T17:25:58.931Z,9.80
2023-04-02T17:30:35.025Z,9.67
2023-04-02T17:34:46.780Z,9.55
2023-04-02T17:39:32.499Z,9.45
2023-04-02T17:44:08.730Z,9.29
2023-04-02T17:48:31.368Z,9.27
2023-04-02T17:52:53.408Z,9.22
2023-04-02T17:57:32.393Z,9.19
2023-04-02T18:02:01.637Z,9.00
2023-04-02T18:06:27.841Z,8.98
2023-04-02T18:10:59.298Z,8.89
2023-04-02T18:15:48.542Z,8.82
2023-04-02T18:20:03.746Z,8.67
2023-04-02T18:24:28.385Z,8.49
2023-04-02T18:29:07.230Z,8.52
2023-04-02T18:33:54.226Z,8.41
2023-04-02T18:38:33.682Z,8.27
2023-04-02T18:43:12.538Z,8.11
2023-04-02T18:47:48.543Z,8.04
2023-04-02T18:52:12.579Z,7.88
2023-04-02T18:56:25.408Z,7.72
2023-04-02T19:00:42.925Z,7.79
2023-04-02T19:05:12.835Z,7.74
2023-04-02T19:09:47.560Z,7.57
2023-04-02T19:14:00.976Z,7.50
2023-04-02T19:18:38.643Z,7.51
2023-04-02T19:23:02.242Z,7.32
2023-04-02T19:27:32.785Z,7.25
2023-04-02T19:31:50.486Z,7.34
2023-04-02T19:36:24.868Z,7.21
2023-04-02T19:40:47.949Z,7.15
2023-04-02T19:45:00.734Z,7.07
2023-04-02T19:49:22.686Z,7.03
2023-04-02T19:53:35.332Z,6.86
2023-04-02T19:57:46.911Z,6.79
2023-04-02T20:02:05.825Z,6.74
2023-04-02T20:06:18.185Z,6.63
2023-04-02T20:10:29.765Z,6.64
2023-04-02T20:14:41.489Z,6.59
2023-04-02T20:18:53.186Z,6.57
2023-04-02T20:23:05.503Z,6.47
2023-04-02T20:27:17.883Z,6.39
2023-04-02T20:31:29.795Z,6.29
2023-04-02T20:35:41.533Z,6.31
2023-04-02T20:39:53.388Z,6.31
2023-04-02T20:44:05.011Z,6.28
2023-04-02T20:48:16.915Z,6.28
2023-04-02T20:52:30.252Z,6.23
2023-04-02T20:56:43.165Z,6.21
2023-04-02T21:00:54.752Z,6.24
2023-04-02T21:05:06.857Z,6.14
2023-04-02T21:09:19.583Z,6.07
2023-04-02T21:13:33.361Z,6.00
2023-04-02T21:17:45.124Z,6.04
2023-04-02T21:21:56.731Z,6.02
2023-04-02T21:26:35.115Z,6.06
2023-04-02T21:30:46.859Z,5.89
2023-04-02T21:34:58.534Z,5.93
2023-04-02T21:39:23.229Z,5.78
2023-04-02T21:43:34.844Z,5.71
2023-04-02T21:47:46.527Z,5.60
2023-04-02T21:51:58.079Z,5.58
2023-04-02T21:56:16.705Z,5.59
2023-04-02T22:00:28.312Z,5.57
2023-04-02T22:04:41.401Z,5.45
2023-04-02T22:09:01.552Z,5.47
2023-04-02T22:13:13.104Z,5.38
2023-04-02T22:17:24.699Z,5.34
2023-04-02T22:21:37.462Z,5.22
2023-04-02T22:25:49.037Z,5.18
2023-04-02T22:30:00.835Z,5.14
2023-04-02T22:34:12.599Z,5.09
2023-04-02T22:38:24.347Z,4.99
2023-04-02T22:42:38.257Z,4.97
2023-04-02T22:46:49.848Z,5.01
2023-04-02T22:51:01.421Z,4.91
2023-04-02T22:55:15.396Z,4.89
2023-04-02T22:59:26.939Z,4.80
2023-04-02T23:03:38.751Z,4.79
2023-04-02T23:07:50.600Z,4.72
2023-04-02T23:12:02.205Z,4.69
2023-04-02T23:16:14.957Z,4.66
2023-04-02T23:20:26.547Z,4.55
2023-04-02T23:24:38.134Z,4.54
2023-04-02T23:28:50.957Z,4.51
2023-04-02T23:33:04.615Z,4.45
2023-04-02T23:37:16.832Z,4.44
2023-04-02T23:41:30.498Z,4.46
2023-04-02T23:45:46.931Z,4.40
2023-04-02T23:49:58.565Z,4.36
2023-04-02T23:54:14.417Z,4.25
2023-04-02T23:58:26.034Z,4.23
